sensor_id;sensor_type;location;lat;lon;timestamp;pressure;altitude;pressure_sealevel;temperature;humidity
40920;BME280;26652;50.280;19.026;2023-08-06T00:00:35;97057.31;;;20.00;100.00
40920;BME280;26652;50.280;19.026;2023-08-06T00:02:56;97041.09;;;19.95;100.00
40920;BME280;26652;50.280;19.026;2023-08-06T00:04:57;97037.66;;;20.04;100.00
40920;BME280;26652;50.280;19.026;2023-08-06T00:06:58;97039.69;;;20.07;100.00
40920;BME280;26652;50.280;19.026;2023-08-06T00:08:58;97037.22;;;19.97;100.00
40920;BME280;26652;50.280;19.026;2023-08-06T00:10:59;97041.56;;;20.02;100.00
40920;BME280;26652;50.280;19.026;2023-08-06T00:12:59;97044.28;;;20.15;100.00
40920;BME280;26652;50.280;19.026;2023-08-06T00:15:00;97006.94;;;20.03;100.00
40920;BME280;26652;50.280;19.026;2023-08-06T00:17:01;96991.47;;;19.98;100.00
40920;BME280;26652;50.280;19.026;2023-08-06T00:19:01;96981.44;;;19.96;100.00
40920;BME280;26652;50.280;19.026;2023-08-06T00:21:03;96963.63;;;19.95;100.00
40920;BME280;26652;50.280;19.026;2023-08-06T00:23:03;96950.44;;;19.96;100.00
40920;BME280;26652;50.280;19.026;2023-08-06T00:25:05;96943.78;;;19.90;100.00
40920;BME280;26652;50.280;19.026;2023-08-06T00:27:06;96928.06;;;19.86;100.00
40920;BME280;26652;50.280;19.026;2023-08-06T00:29:06;96924.97;;;19.84;100.00
40920;BME280;26652;50.280;19.026;2023-08-06T00:31:07;96915.88;;;19.92;100.00
40920;BME280;26652;50.280;19.026;2023-08-06T00:33:08;96892.41;;;19.88;100.00
40920;BME280;26652;50.280;19.026;2023-08-06T00:35:08;96874.38;;;19.83;100.00
40920;BME280;26652;50.280;19.026;2023-08-06T00:37:09;96845.25;;;19.78;100.00
40920;BME280;26652;50.280;19.026;2023-08-06T00:39:10;96814.19;;;19.64;100.00
40920;BME280;26652;50.280;19.026;2023-08-06T00:41:11;96806.97;;;19.66;100.00
40920;BME280;26652;50.280;19.026;2023-08-06T00:43:12;96813.75;;;19.57;100.00
40920;BME280;26652;50.280;19.026;2023-08-06T00:45:12;96803.09;;;19.64;100.00
40920;BME280;26652;50.280;19.026;2023-08-06T00:47:13;96800.03;;;19.62;100.00
40920;BME280;26652;50.280;19.026;2023-08-06T00:49:14;96876.75;;;19.56;100.00
40920;BME280;26652;50.280;19.026;2023-08-06T00:51:15;96957.69;;;19.70;100.00
40920;BME280;26652;50.280;19.026;2023-08-06T00:53:16;96921.75;;;19.74;100.00
40920;BME280;26652;50.280;19.026;2023-08-06T00:55:17;96861.78;;;19.77;100.00
40920;BME280;26652;50.280;19.026;2023-08-06T00:57:18;96833.69;;;19.75;100.00
40920;BME280;26652;50.280;19.026;2023-08-06T00:59:19;96821.13;;;19.69;100.00
40920;BME280;26652;50.280;19.026;2023-08-06T01:01:20;96823.97;;;19.67;100.00
40920;BME280;26652;50.280;19.026;2023-08-06T01:03:21;96821.13;;;19.69;100.00
40920;BME280;26652;50.280;19.026;2023-08-06T01:05:22;96830.47;;;19.83;100.00
40920;BME280;26652;50.280;19.026;2023-08-06T01:07:50;96813.81;;;19.76;100.00
40920;BME280;26652;50.280;19.026;2023-08-06T01:09:57;96839.38;;;19.96;100.00
40920;BME280;26652;50.280;19.026;2023-08-06T01:12:09;96850.31;;;19.88;100.00
40920;BME280;26652;50.280;19.026;2023-08-06T01:14:41;96852.41;;;19.86;100.00
40920;BME280;26652;50.280;19.026;2023-08-06T01:16:46;96840.47;;;19.71;100.00
40920;BME280;26652;50.280;19.026;2023-08-06T01:18:47;96836.28;;;19.75;100.00
40920;BME280;26652;50.280;19.026;2023-08-06T01:20:50;96857.78;;;19.89;100.00
40920;BME280;26652;50.280;19.026;2023-08-06T01:22:50;96852.91;;;19.88;100.00
40920;BME280;26652;50.280;19.026;2023-08-06T01:24:51;96836.47;;;19.79;100.00
40920;BME280;26652;50.280;19.026;2023-08-06T01:27:02;96827.72;;;19.99;100.00
40920;BME280;26652;50.280;19.026;2023-08-06T01:29:09;96845.34;;;20.15;100.00
40920;BME280;26652;50.280;19.026;2023-08-06T01:31:30;96819.50;;;20.15;100.00
40920;BME280;26652;50.280;19.026;2023-08-06T01:33:32;96797.03;;;20.16;100.00
40920;BME280;26652;50.280;19.026;2023-08-06T01:35:35;96781.53;;;20.16;100.00
40920;BME280;26652;50.280;19.026;2023-08-06T01:37:37;96785.09;;;20.20;100.00
40920;BME280;26652;50.280;19.026;2023-08-06T01:39:42;96753.31;;;20.19;100.00
40920;BME280;26652;50.280;19.026;2023-08-06T01:41:42;96761.19;;;20.28;100.00
40920;BME280;26652;50.280;19.026;2023-08-06T01:43:43;96759.47;;;20.23;100.00
40920;BME280;26652;50.280;19.026;2023-08-06T01:45:44;96754.56;;;20.22;100.00
40920;BME280;26652;50.280;19.026;2023-08-06T01:47:44;96753.44;;;20.28;100.00
40920;BME280;26652;50.280;19.026;2023-08-06T01:49:45;96760.72;;;20.26;100.00
40920;BME280;26652;50.280;19.026;2023-08-06T01:51:46;96788.94;;;20.41;100.00
40920;BME280;26652;50.280;19.026;2023-08-06T01:53:47;96779.16;;;20.38;100.00
40920;BME280;26652;50.280;19.026;2023-08-06T01:55:48;96800.19;;;20.50;100.00
40920;BME280;26652;50.280;19.026;2023-08-06T01:57:49;96790.28;;;20.39;100.00
40920;BME280;26652;50.280;19.026;2023-08-06T01:59:49;96811.84;;;20.48;100.00
40920;BME280;26652;50.280;19.026;2023-08-06T02:01:50;96785.16;;;20.34;100.00
40920;BME280;26652;50.280;19.026;2023-08-06T02:03:51;96783.91;;;20.31;100.00
40920;BME280;26652;50.280;19.026;2023-08-06T02:05:51;96779.34;;;20.23;100.00
40920;BME280;26652;50.280;19.026;2023-08-06T02:07:52;96783.25;;;20.20;100.00
40920;BME280;26652;50.280;19.026;2023-08-06T02:09:52;96789.81;;;20.32;100.00
40920;BME280;26652;50.280;19.026;2023-08-06T02:11:53;96780.88;;;20.24;100.00
40920;BME280;26652;50.280;19.026;2023-08-06T02:13:54;96772.94;;;20.20;100.00
40920;BME280;26652;50.280;19.026;2023-08-06T02:15:54;96779.91;;;20.20;100.00
40920;BME280;26652;50.280;19.026;2023-08-06T02:17:55;96784.66;;;20.32;100.00
40920;BME280;26652;50.280;19.026;2023-08-06T02:19:56;96787.34;;;20.45;100.00
40920;BME280;26652;50.280;19.026;2023-08-06T02:21:57;96768.28;;;20.41;100.00
40920;BME280;26652;50.280;19.026;2023-08-06T02:23:58;96770.28;;;20.44;100.00
40920;BME280;26652;50.280;19.026;2023-08-06T02:26:03;96766.44;;;20.42;100.00
40920;BME280;26652;50.280;19.026;2023-08-06T02:28:04;96764.63;;;20.42;100.00
40920;BME280;26652;50.280;19.026;2023-08-06T02:30:05;96762.16;;;20.32;100.00
40920;BME280;26652;50.280;19.026;2023-08-06T02:32:06;96762.09;;;20.37;100.00
40920;BME280;26652;50.280;19.026;2023-08-06T02:34:07;96770.69;;;20.33;100.00
40920;BME280;26652;50.280;19.026;2023-08-06T02:36:08;96784.53;;;20.42;100.00
40920;BME280;26652;50.280;19.026;2023-08-06T02:38:09;96792.03;;;20.43;100.00
40920;BME280;26652;50.280;19.026;2023-08-06T02:40:09;96761.34;;;20.37;100.00
40920;BME280;26652;50.280;19.026;2023-08-06T02:42:10;96769.03;;;20.42;100.00
40920;BME280;26652;50.280;19.026;2023-08-06T02:44:11;96758.25;;;20.35;100.00
40920;BME280;26652;50.280;19.026;2023-08-06T02:46:12;96749.53;;;20.31;100.00
40920;BME280;26652;50.280;19.026;2023-08-06T02:48:12;96760.84;;;20.35;100.00
40920;BME280;26652;50.280;19.026;2023-08-06T02:50:13;96753.16;;;20.30;100.00
40920;BME280;26652;50.280;19.026;2023-08-06T02:52:14;96744.00;;;20.37;100.00
40920;BME280;26652;50.280;19.026;2023-08-06T02:54:14;96749.91;;;20.43;100.00
40920;BME280;26652;50.280;19.026;2023-08-06T02:56:15;96754.44;;;20.51;100.00
40920;BME280;26652;50.280;19.026;2023-08-06T02:58:16;96750.94;;;20.42;100.00
40920;BME280;26652;50.280;19.026;2023-08-06T03:00:16;96744.78;;;20.38;100.00
40920;BME280;26652;50.280;19.026;2023-08-06T03:02:17;96733.41;;;20.39;100.00
40920;BME280;26652;50.280;19.026;2023-08-06T03:04:17;96745.06;;;20.55;100.00
40920;BME280;26652;50.280;19.026;2023-08-06T03:06:18;96725.09;;;20.42;100.00
40920;BME280;26652;50.280;19.026;2023-08-06T03:08:19;96733.63;;;20.42;100.00
40920;BME280;26652;50.280;19.026;2023-08-06T03:10:22;96731.03;;;20.42;100.00
40920;BME280;26652;50.280;19.026;2023-08-06T03:12:23;96729.28;;;20.38;100.00
40920;BME280;26652;50.280;19.026;2023-08-06T03:14:24;96737.47;;;20.45;100.00
40920;BME280;26652;50.280;19.026;2023-08-06T03:16:24;96740.16;;;20.35;100.00
40920;BME280;26652;50.280;19.026;2023-08-06T03:18:25;96749.91;;;20.43;100.00
40920;BME280;26652;50.280;19.026;2023-08-06T03:20:28;96722.81;;;20.40;100.00
40920;BME280;26652;50.280;19.026;2023-08-06T03:22:29;96725.78;;;20.47;100.00
40920;BME280;26652;50.280;19.026;2023-08-06T03:24:30;96724.84;;;20.57;100.00
40920;BME280;26652;50.280;19.026;2023-08-06T03:26:30;96714.69;;;20.47;100.00
40920;BME280;26652;50.280;19.026;2023-08-06T03:28:31;96727.16;;;20.59;100.00
40920;BME280;26652;50.280;19.026;2023-08-06T03:30:32;96706.72;;;20.43;100.00
40920;BME280;26652;50.280;19.026;2023-08-06T03:32:32;96700.06;;;20.37;100.00
40920;BME280;26652;50.280;19.026;2023-08-06T03:34:33;96718.41;;;20.41;100.00
40920;BME280;26652;50.280;19.026;2023-08-06T03:36:34;96716.44;;;20.33;100.00
40920;BME280;26652;50.280;19.026;2023-08-06T03:38:34;96715.88;;;20.36;100.00
40920;BME280;26652;50.280;19.026;2023-08-06T03:40:35;96713.06;;;20.32;100.00
40920;BME280;26652;50.280;19.026;2023-08-06T03:42:36;96704.63;;;20.27;100.00
40920;BME280;26652;50.280;19.026;2023-08-06T03:44:37;96700.72;;;20.29;100.00
40920;BME280;26652;50.280;19.026;2023-08-06T03:46:37;96692.28;;;20.23;100.00
40920;BME280;26652;50.280;19.026;2023-08-06T03:48:38;96686.91;;;20.20;100.00
40920;BME280;26652;50.280;19.026;2023-08-06T03:50:39;96690.66;;;20.28;100.00
40920;BME280;26652;50.280;19.026;2023-08-06T03:52:39;96669.19;;;20.13;100.00
40920;BME280;26652;50.280;19.026;2023-08-06T03:54:40;96671.19;;;20.16;100.00
40920;BME280;26652;50.280;19.026;2023-08-06T03:56:43;96672.16;;;20.20;100.00
40920;BME280;26652;50.280;19.026;2023-08-06T03:58:44;96681.97;;;20.37;100.00
40920;BME280;26652;50.280;19.026;2023-08-06T04:00:44;96696.81;;;20.32;100.00
40920;BME280;26652;50.280;19.026;2023-08-06T04:02:45;96690.19;;;20.25;100.00
40920;BME280;26652;50.280;19.026;2023-08-06T04:04:46;96675.59;;;20.16;100.00
40920;BME280;26652;50.280;19.026;2023-08-06T04:06:46;96682.91;;;20.28;100.00
40920;BME280;26652;50.280;19.026;2023-08-06T04:08:47;96684.16;;;20.30;100.00
40920;BME280;26652;50.280;19.026;2023-08-06T04:10:54;96685.09;;;20.39;100.00
40920;BME280;26652;50.280;19.026;2023-08-06T04:12:54;96677.16;;;20.49;100.00
40920;BME280;26652;50.280;19.026;2023-08-06T04:14:57;96678.38;;;20.38;100.00
40920;BME280;26652;50.280;19.026;2023-08-06T04:16:58;96677.03;;;20.41;100.00
40920;BME280;26652;50.280;19.026;2023-08-06T04:18:58;96683.19;;;20.45;100.00
40920;BME280;26652;50.280;19.026;2023-08-06T04:20:59;96671.88;;;20.41;100.00
40920;BME280;26652;50.280;19.026;2023-08-06T04:23:06;96676.13;;;20.50;100.00
40920;BME280;26652;50.280;19.026;2023-08-06T04:25:06;96678.31;;;20.43;100.00
40920;BME280;26652;50.280;19.026;2023-08-06T04:27:08;96695.53;;;20.48;100.00
40920;BME280;26652;50.280;19.026;2023-08-06T04:29:08;96681.09;;;20.28;100.00
40920;BME280;26652;50.280;19.026;2023-08-06T04:31:09;96700.06;;;20.37;100.00
40920;BME280;26652;50.280;19.026;2023-08-06T04:33:10;96689.97;;;20.41;100.00
40920;BME280;26652;50.280;19.026;2023-08-06T04:35:10;96675.50;;;20.40;100.00
40920;BME280;26652;50.280;19.026;2023-08-06T04:37:11;96648.19;;;20.34;100.00
40920;BME280;26652;50.280;19.026;2023-08-06T04:39:12;96659.25;;;20.39;100.00
40920;BME280;26652;50.280;19.026;2023-08-06T04:41:12;96667.59;;;20.50;100.00
40920;BME280;26652;50.280;19.026;2023-08-06T04:43:13;96650.16;;;20.42;100.00
40920;BME280;26652;50.280;19.026;2023-08-06T04:45:14;96650.44;;;20.40;100.00
40920;BME280;26652;50.280;19.026;2023-08-06T04:47:14;96647.00;;;20.45;100.00
40920;BME280;26652;50.280;19.026;2023-08-06T04:49:15;96672.78;;;20.64;100.00
40920;BME280;26652;50.280;19.026;2023-08-06T04:51:15;96653.81;;;20.54;100.00
40920;BME280;26652;50.280;19.026;2023-08-06T04:53:16;96649.81;;;20.62;100.00
40920;BME280;26652;50.280;19.026;2023-08-06T04:55:17;96661.69;;;20.77;100.00
40920;BME280;26652;50.280;19.026;2023-08-06T04:57:18;96659.00;;;20.68;100.00
40920;BME280;26652;50.280;19.026;2023-08-06T04:59:18;96649.16;;;20.70;100.00
40920;BME280;26652;50.280;19.026;2023-08-06T05:01:19;96648.28;;;20.61;100.00
40920;BME280;26652;50.280;19.026;2023-08-06T05:03:20;96650.09;;;20.61;100.00
40920;BME280;26652;50.280;19.026;2023-08-06T05:05:20;96629.38;;;20.47;100.00
40920;BME280;26652;50.280;19.026;2023-08-06T05:07:21;96638.97;;;20.60;100.00
40920;BME280;26652;50.280;19.026;2023-08-06T05:09:22;96646.81;;;20.55;100.00
40920;BME280;26652;50.280;19.026;2023-08-06T05:11:22;96653.53;;;20.56;100.00
40920;BME280;26652;50.280;19.026;2023-08-06T05:13:24;96635.53;;;20.51;100.00
40920;BME280;26652;50.280;19.026;2023-08-06T05:15:25;96633.50;;;20.48;100.00
40920;BME280;26652;50.280;19.026;2023-08-06T05:17:26;96633.03;;;20.46;100.00
40920;BME280;26652;50.280;19.026;2023-08-06T05:19:27;96609.75;;;20.46;100.00
40920;BME280;26652;50.280;19.026;2023-08-06T05:21:28;96637.53;;;20.54;100.00
40920;BME280;26652;50.280;19.026;2023-08-06T05:23:29;96612.91;;;20.43;100.00
40920;BME280;26652;50.280;19.026;2023-08-06T05:25:29;96602.38;;;20.39;100.00
40920;BME280;26652;50.280;19.026;2023-08-06T05:27:30;96615.41;;;20.48;100.00
40920;BME280;26652;50.280;19.026;2023-08-06T05:29:31;96605.72;;;20.40;100.00
40920;BME280;26652;50.280;19.026;2023-08-06T05:31:32;96599.09;;;20.34;100.00
40920;BME280;26652;50.280;19.026;2023-08-06T05:33:32;96619.16;;;20.55;100.00
40920;BME280;26652;50.280;19.026;2023-08-06T05:35:33;96598.25;;;20.38;100.00
40920;BME280;26652;50.280;19.026;2023-08-06T05:37:33;96593.88;;;20.39;100.00
40920;BME280;26652;50.280;19.026;2023-08-06T05:39:34;96587.66;;;20.40;100.00
40920;BME280;26652;50.280;19.026;2023-08-06T05:41:35;96592.19;;;20.29;100.00
40920;BME280;26652;50.280;19.026;2023-08-06T05:43:36;96601.38;;;20.21;100.00
40920;BME280;26652;50.280;19.026;2023-08-06T05:45:36;96619.97;;;20.37;100.00
40920;BME280;26652;50.280;19.026;2023-08-06T05:47:37;96591.84;;;20.03;100.00
40920;BME280;26652;50.280;19.026;2023-08-06T05:49:37;96595.47;;;20.02;100.00
40920;BME280;26652;50.280;19.026;2023-08-06T05:51:38;96599.44;;;20.13;100.00
40920;BME280;26652;50.280;19.026;2023-08-06T05:53:39;96581.13;;;19.96;100.00
40920;BME280;26652;50.280;19.026;2023-08-06T05:55:40;96581.41;;;19.95;100.00
40920;BME280;26652;50.280;19.026;2023-08-06T05:57:40;96570.53;;;19.79;100.00
40920;BME280;26652;50.280;19.026;2023-08-06T05:59:41;96566.81;;;19.71;100.00
40920;BME280;26652;50.280;19.026;2023-08-06T06:01:42;96569.69;;;19.70;100.00
40920;BME280;26652;50.280;19.026;2023-08-06T06:03:43;96572.81;;;19.67;100.00
40920;BME280;26652;50.280;19.026;2023-08-06T06:05:44;96570.25;;;19.67;100.00
40920;BME280;26652;50.280;19.026;2023-08-06T06:07:46;96569.81;;;19.59;100.00
40920;BME280;26652;50.280;19.026;2023-08-06T06:09:46;96568.41;;;19.48;100.00
40920;BME280;26652;50.280;19.026;2023-08-06T06:11:47;96561.22;;;19.45;100.00
40920;BME280;26652;50.280;19.026;2023-08-06T06:13:51;96574.72;;;19.61;100.00
40920;BME280;26652;50.280;19.026;2023-08-06T06:15:55;96579.31;;;19.64;100.00
40920;BME280;26652;50.280;19.026;2023-08-06T06:17:56;96568.72;;;19.66;100.00
40920;BME280;26652;50.280;19.026;2023-08-06T06:19:57;96547.84;;;19.43;100.00
40920;BME280;26652;50.280;19.026;2023-08-06T06:21:58;96535.22;;;19.23;100.00
40920;BME280;26652;50.280;19.026;2023-08-06T06:23:59;96546.50;;;19.08;100.00
40920;BME280;26652;50.280;19.026;2023-08-06T06:25:59;96560.31;;;18.99;100.00
40920;BME280;26652;50.280;19.026;2023-08-06T06:28:00;96558.69;;;19.03;100.00
40920;BME280;26652;50.280;19.026;2023-08-06T06:30:01;96551.75;;;19.03;100.00
40920;BME280;26652;50.280;19.026;2023-08-06T06:32:01;96527.47;;;18.85;100.00
40920;BME280;26652;50.280;19.026;2023-08-06T06:34:02;96523.00;;;18.72;100.00
40920;BME280;26652;50.280;19.026;2023-08-06T06:36:03;96525.97;;;18.37;100.00
40920;BME280;26652;50.280;19.026;2023-08-06T06:38:04;96542.47;;;18.07;100.00
40920;BME280;26652;50.280;19.026;2023-08-06T06:40:05;96525.81;;;17.99;100.00
40920;BME280;26652;50.280;19.026;2023-08-06T06:42:06;96510.00;;;18.11;100.00
40920;BME280;26652;50.280;19.026;2023-08-06T06:44:06;96498.72;;;18.07;100.00
40920;BME280;26652;50.280;19.026;2023-08-06T06:46:07;96507.03;;;17.98;100.00
40920;BME280;26652;50.280;19.026;2023-08-06T06:48:08;96515.75;;;18.03;100.00
40920;BME280;26652;50.280;19.026;2023-08-06T06:50:08;96516.88;;;17.91;100.00
40920;BME280;26652;50.280;19.026;2023-08-06T06:52:09;96516.59;;;17.93;100.00
40920;BME280;26652;50.280;19.026;2023-08-06T06:54:10;96495.88;;;17.79;100.00
40920;BME280;26652;50.280;19.026;2023-08-06T06:56:12;96501.78;;;17.80;100.00
40920;BME280;26652;50.280;19.026;2023-08-06T06:58:12;96476.47;;;17.63;100.00
40920;BME280;26652;50.280;19.026;2023-08-06T07:00:13;96477.22;;;17.63;100.00
40920;BME280;26652;50.280;19.026;2023-08-06T07:02:14;96472.44;;;17.52;100.00
40920;BME280;26652;50.280;19.026;2023-08-06T07:04:15;96463.13;;;17.56;100.00
40920;BME280;26652;50.280;19.026;2023-08-06T07:06:15;96456.16;;;17.61;100.00
40920;BME280;26652;50.280;19.026;2023-08-06T07:08:18;96463.78;;;17.72;100.00
40920;BME280;26652;50.280;19.026;2023-08-06T07:10:19;96474.84;;;17.72;100.00
40920;BME280;26652;50.280;19.026;2023-08-06T07:12:20;96479.03;;;17.63;100.00
40920;BME280;26652;50.280;19.026;2023-08-06T07:14:25;96479.69;;;17.45;100.00
40920;BME280;26652;50.280;19.026;2023-08-06T07:16:26;96512.28;;;17.54;100.00
40920;BME280;26652;50.280;19.026;2023-08-06T07:18:26;96503.31;;;17.52;100.00
40920;BME280;26652;50.280;19.026;2023-08-06T07:20:27;96519.72;;;17.56;100.00
40920;BME280;26652;50.280;19.026;2023-08-06T07:22:31;96527.56;;;17.41;100.00
40920;BME280;26652;50.280;19.026;2023-08-06T07:24:32;96540.22;;;17.32;100.00
40920;BME280;26652;50.280;19.026;2023-08-06T07:26:33;96569.03;;;17.29;100.00
40920;BME280;26652;50.280;19.026;2023-08-06T07:28:33;96567.31;;;17.14;100.00
40920;BME280;26652;50.280;19.026;2023-08-06T07:30:38;96562.69;;;17.11;100.00
40920;BME280;26652;50.280;19.026;2023-08-06T07:32:39;96561.16;;;17.10;100.00
40920;BME280;26652;50.280;19.026;2023-08-06T07:34:39;96555.81;;;17.02;100.00
40920;BME280;26652;50.280;19.026;2023-08-06T07:36:43;96533.03;;;16.75;100.00
40920;BME280;26652;50.280;19.026;2023-08-06T07:38:44;96524.28;;;16.81;100.00
40920;BME280;26652;50.280;19.026;2023-08-06T07:40:45;96519.47;;;16.69;100.00
40920;BME280;26652;50.280;19.026;2023-08-06T07:42:45;96558.75;;;16.75;100.00
40920;BME280;26652;50.280;19.026;2023-08-06T07:44:54;96569.59;;;16.51;100.00
40920;BME280;26652;50.280;19.026;2023-08-06T07:46:55;96581.69;;;16.41;100.00
40920;BME280;26652;50.280;19.026;2023-08-06T07:48:56;96538.06;;;16.30;100.00
40920;BME280;26652;50.280;19.026;2023-08-06T07:50:57;96551.84;;;16.60;100.00
40920;BME280;26652;50.280;19.026;2023-08-06T07:52:58;96551.56;;;16.66;100.00
40920;BME280;26652;50.280;19.026;2023-08-06T07:54:58;96575.19;;;16.74;100.00
40920;BME280;26652;50.280;19.026;2023-08-06T07:56:59;96561.88;;;16.61;100.00
40920;BME280;26652;50.280;19.026;2023-08-06T07:59:00;96583.66;;;16.79;100.00
40920;BME280;26652;50.280;19.026;2023-08-06T08:01:01;96577.00;;;16.63;100.00
40920;BME280;26652;50.280;19.026;2023-08-06T08:03:01;96574.47;;;16.58;100.00
40920;BME280;26652;50.280;19.026;2023-08-06T08:05:02;96560.81;;;16.73;100.00
40920;BME280;26652;50.280;19.026;2023-08-06T08:07:03;96563.31;;;16.88;100.00
40920;BME280;26652;50.280;19.026;2023-08-06T08:09:04;96537.63;;;16.83;100.00
40920;BME280;26652;50.280;19.026;2023-08-06T08:11:05;96549.94;;;16.91;100.00
40920;BME280;26652;50.280;19.026;2023-08-06T08:13:06;96553.53;;;16.90;100.00
40920;BME280;26652;50.280;19.026;2023-08-06T08:15:07;96553.34;;;16.71;100.00
40920;BME280;26652;50.280;19.026;2023-08-06T08:17:08;96540.25;;;16.73;100.00
40920;BME280;26652;50.280;19.026;2023-08-06T08:19:08;96541.00;;;16.78;100.00
40920;BME280;26652;50.280;19.026;2023-08-06T08:21:09;96548.66;;;16.88;100.00
40920;BME280;26652;50.280;19.026;2023-08-06T08:23:09;96556.34;;;16.93;100.00
40920;BME280;26652;50.280;19.026;2023-08-06T08:25:10;96558.34;;;17.07;100.00
40920;BME280;26652;50.280;19.026;2023-08-06T08:27:11;96541.19;;;16.92;100.00
40920;BME280;26652;50.280;19.026;2023-08-06T08:29:12;96543.50;;;16.93;100.00
40920;BME280;26652;50.280;19.026;2023-08-06T08:31:12;96547.13;;;16.87;100.00
40920;BME280;26652;50.280;19.026;2023-08-06T08:33:13;96545.63;;;16.81;100.00
40920;BME280;26652;50.280;19.026;2023-08-06T08:35:13;96536.06;;;16.92;100.00
40920;BME280;26652;50.280;19.026;2023-08-06T08:37:16;96537.34;;;16.94;100.00
40920;BME280;26652;50.280;19.026;2023-08-06T08:39:17;96539.31;;;17.08;100.00
40920;BME280;26652;50.280;19.026;2023-08-06T08:41:18;96551.66;;;17.06;100.00
40920;BME280;26652;50.280;19.026;2023-08-06T08:43:21;96529.34;;;16.96;100.00
40920;BME280;26652;50.280;19.026;2023-08-06T08:45:23;96556.78;;;17.11;100.00
40920;BME280;26652;50.280;19.026;2023-08-06T08:47:26;96561.13;;;17.15;100.00
40920;BME280;26652;50.280;19.026;2023-08-06T08:49:27;96571.19;;;17.12;100.00
40920;BME280;26652;50.280;19.026;2023-08-06T08:51:29;96569.03;;;17.29;100.00
40920;BME280;26652;50.280;19.026;2023-08-06T08:53:31;96540.03;;;17.18;100.00
40920;BME280;26652;50.280;19.026;2023-08-06T08:55:32;96538.03;;;17.10;100.00
40920;BME280;26652;50.280;19.026;2023-08-06T08:57:33;96547.75;;;17.18;100.00
40920;BME280;26652;50.280;19.026;2023-08-06T08:59:33;96555.69;;;17.22;100.00
40920;BME280;26652;50.280;19.026;2023-08-06T09:01:34;96561.38;;;17.19;100.00
40920;BME280;26652;50.280;19.026;2023-08-06T09:03:36;96546.03;;;17.04;100.00
40920;BME280;26652;50.280;19.026;2023-08-06T09:05:39;96547.28;;;17.11;100.00
40920;BME280;26652;50.280;19.026;2023-08-06T09:07:42;96541.09;;;17.12;100.00
40920;BME280;26652;50.280;19.026;2023-08-06T09:09:48;96531.13;;;17.00;100.00
40920;BME280;26652;50.280;19.026;2023-08-06T09:11:50;96532.44;;;16.98;100.00
40920;BME280;26652;50.280;19.026;2023-08-06T09:13:51;96538.59;;;16.97;100.00
40920;BME280;26652;50.280;19.026;2023-08-06T09:15:51;96541.19;;;16.97;100.00
40920;BME280;26652;50.280;19.026;2023-08-06T09:17:53;96546.81;;;16.99;100.00
40920;BME280;26652;50.280;19.026;2023-08-06T09:19:54;96559.88;;;17.08;100.00
40920;BME280;26652;50.280;19.026;2023-08-06T09:21:55;96531.44;;;16.89;100.00
40920;BME280;26652;50.280;19.026;2023-08-06T09:23:58;96513.47;;;16.84;100.00
40920;BME280;26652;50.280;19.026;2023-08-06T09:25:59;96531.44;;;16.89;100.00
40920;BME280;26652;50.280;19.026;2023-08-06T09:28:02;96510.66;;;16.80;100.00
40920;BME280;26652;50.280;19.026;2023-08-06T09:30:04;96499.38;;;16.76;100.00
40920;BME280;26652;50.280;19.026;2023-08-06T09:32:05;96515.56;;;16.77;100.00
40920;BME280;26652;50.280;19.026;2023-08-06T09:34:16;96505.78;;;16.79;100.00
40920;BME280;26652;50.280;19.026;2023-08-06T09:36:17;96516.81;;;16.84;100.00
40920;BME280;26652;50.280;19.026;2023-08-06T09:38:18;96519.63;;;16.88;100.00
40920;BME280;26652;50.280;19.026;2023-08-06T09:40:29;96509.09;;;16.84;100.00
40920;BME280;26652;50.280;19.026;2023-08-06T09:42:30;96503.00;;;16.75;100.00
40920;BME280;26652;50.280;19.026;2023-08-06T09:44:32;96523.75;;;16.89;100.00
40920;BME280;26652;50.280;19.026;2023-08-06T09:46:33;96522.19;;;16.88;100.00
40920;BME280;26652;50.280;19.026;2023-08-06T09:48:34;96519.63;;;16.88;100.00
40920;BME280;26652;50.280;19.026;2023-08-06T09:50:36;96511.19;;;16.77;100.00
40920;BME280;26652;50.280;19.026;2023-08-06T09:52:37;96528.06;;;16.98;100.00
40920;BME280;26652;50.280;19.026;2023-08-06T09:54:38;96531.91;;;17.01;100.00
40920;BME280;26652;50.280;19.026;2023-08-06T09:56:39;96528.59;;;16.95;100.00
40920;BME280;26652;50.280;19.026;2023-08-06T09:58:41;96533.19;;;16.98;100.00
40920;BME280;26652;50.280;19.026;2023-08-06T10:00:42;96515.00;;;16.90;100.00
40920;BME280;26652;50.280;19.026;2023-08-06T10:02:43;96527.56;;;16.96;100.00
40920;BME280;26652;50.280;19.026;2023-08-06T10:04:45;96537.13;;;16.86;100.00
40920;BME280;26652;50.280;19.026;2023-08-06T10:06:47;96548.94;;;16.82;100.00
40920;BME280;26652;50.280;19.026;2023-08-06T10:08:48;96544.09;;;16.75;100.00
40920;BME280;26652;50.280;19.026;2023-08-06T10:10:49;96535.59;;;16.80;100.00
40920;BME280;26652;50.280;19.026;2023-08-06T10:12:51;96543.53;;;16.88;100.00
40920;BME280;26652;50.280;19.026;2023-08-06T10:14:54;96540.16;;;16.93;100.00
40920;BME280;26652;50.280;19.026;2023-08-06T10:16:57;96539.66;;;16.91;100.00
40920;BME280;26652;50.280;19.026;2023-08-06T10:19:01;96559.63;;;17.09;100.00
40920;BME280;26652;50.280;19.026;2023-08-06T10:21:01;96552.00;;;16.89;100.00
40920;BME280;26652;50.280;19.026;2023-08-06T10:23:06;96557.16;;;16.89;100.00
40920;BME280;26652;50.280;19.026;2023-08-06T10:25:08;96556.91;;;16.85;100.00
40920;BME280;26652;50.280;19.026;2023-08-06T10:27:08;96578.94;;;17.02;100.00